Time;durP1;ratioP1;P1;durP2;ratioP2;P2;SDS_P1;SDS_P2;PMS_P1;PMS_P2;Temp;Humidity;BMP_temperature;BMP_pressure;BME280_temperature;BME280_humidity;BME280_pressure;Samples;Min_cycle;Max_cycle;Signal;HPM_P1;HPM_P2
2022/03/31 00:02:07;;;;;;;47.83;32.42;;;27.80;99.90;;;;;;5054108;28;20039;-63
2022/03/31 00:04:34;;;;;;;44.05;29.58;;;27.80;99.90;;;;;;5054310;28;20025;-63
2022/03/31 00:07:01;;;;;;;65.65;27.75;;;;;;;;;;5054297;28;20055;-65
2022/03/31 00:09:27;;;;;;;38.63;25.98;;;28.10;99.90;;;;;;5054077;28;20029;-63
2022/03/31 00:11:54;;;;;;;37.20;25.95;;;28.00;99.90;;;;;;5053458;28;20395;-63
2022/03/31 00:14:21;;;;;;;42.10;27.98;;;28.10;99.90;;;;;;5053731;28;20119;-63
2022/03/31 00:16:48;;;;;;;48.08;32.15;;;28.20;99.90;;;;;;5053370;28;20049;-64
2022/03/31 00:19:14;;;;;;;54.90;36.80;;;28.30;99.90;;;;;;5053915;28;20032;-65
2022/03/31 00:21:41;;;;;;;50.28;35.15;;;28.30;99.90;;;;;;5051600;28;20060;-65
2022/03/31 00:24:08;;;;;;;54.45;36.53;;;28.30;99.90;;;;;;5053968;28;20033;-67
2022/03/31 00:26:35;;;;;;;67.72;46.45;;;28.30;99.90;;;;;;5053250;28;20487;-66
2022/03/31 00:29:02;;;;;;;58.35;38.67;;;28.30;99.90;;;;;;5053878;28;20036;-66
2022/03/31 00:31:29;;;;;;;53.30;38.05;;;28.40;99.90;;;;;;5053422;28;20033;-65
2022/03/31 00:33:55;;;;;;;58.22;40.42;;;28.40;99.90;;;;;;5053706;28;20033;-65
2022/03/31 00:36:22;;;;;;;183.95;120.00;;;28.50;99.90;;;;;;5053778;28;20029;-65
2022/03/31 00:41:27;;;;;;;78.60;55.10;;;28.60;99.90;;;;;;5053210;28;20105;-65
2022/03/31 00:43:54;;;;;;;66.00;45.42;;;28.60;99.90;;;;;;5071226;22;20045;-64
2022/03/31 00:46:22;;;;;;;72.28;45.72;;;28.70;99.90;;;;;;5072959;28;20047;-66
2022/03/31 00:48:49;;;;;;;109.72;76.47;;;28.80;99.90;;;;;;5073662;28;20063;-66
2022/03/31 00:51:15;;;;;;;77.00;54.63;;;28.90;99.90;;;;;;5073674;28;20025;-65
2022/03/31 00:53:42;;;;;;;53.30;40.47;;;28.90;99.90;;;;;;5073494;28;20077;-66
2022/03/31 00:56:10;;;;;;;44.22;29.80;;;29.00;99.90;;;;;;5073569;28;20025;-65
2022/03/31 00:58:37;;;;;;;73.40;49.55;;;29.00;99.90;;;;;;5073273;28;20052;-65
2022/03/31 01:01:04;;;;;;;53.80;36.70;;;29.10;99.90;;;;;;5073482;28;20086;-66
2022/03/31 01:03:31;;;;;;;49.78;34.40;;;29.10;99.90;;;;;;5073319;28;20036;-66
2022/03/31 01:05:58;;;;;;;42.17;30.75;;;29.20;99.90;;;;;;5073560;28;20490;-65
2022/03/31 01:08:25;;;;;;;45.53;32.33;;;29.40;99.90;;;;;;5073398;28;20037;-64
2022/03/31 01:10:53;;;;;;;41.60;28.70;;;29.40;99.90;;;;;;5073108;28;20503;-65
2022/03/31 01:13:20;;;;;;;49.97;34.88;;;29.50;99.90;;;;;;5073357;28;20032;-65
2022/03/31 01:15:46;;;;;;;46.72;28.95;;;29.50;99.90;;;;;;5073284;28;20107;-66
2022/03/31 01:18:13;;;;;;;47.55;28.90;;;29.60;99.90;;;;;;5073124;28;20031;-64
2022/03/31 01:20:40;;;;;;;48.05;28.80;;;29.60;99.90;;;;;;5072522;28;20103;-64
2022/03/31 01:23:12;;;;;;;47.72;32.92;;;29.60;99.90;;;;;;5072112;28;20070;-63
2022/03/31 01:25:39;;;;;;;34.97;25.95;;;29.70;99.90;;;;;;5073038;28;20024;-64
2022/03/31 01:28:06;;;;;;;65.85;49.72;;;29.70;99.90;;;;;;5073104;28;20020;-63
2022/03/31 01:30:33;;;;;;;41.97;35.38;;;29.70;99.90;;;;;;5072922;28;20036;-64
2022/03/31 01:33:00;;;;;;;48.20;37.20;;;29.80;99.90;;;;;;5072672;28;20387;-63
2022/03/31 01:35:27;;;;;;;68.75;54.13;;;29.90;99.90;;;;;;5073033;28;20040;-65
2022/03/31 01:37:53;;;;;;;41.58;33.22;;;30.00;99.90;;;;;;5072949;28;20028;-62
2022/03/31 01:40:20;;;;;;;60.55;36.65;;;30.00;99.90;;;;;;5070178;28;20029;-66
2022/03/31 01:42:47;;;;;;;57.90;34.92;;;30.10;99.90;;;;;;5072695;28;20459;-63
2022/03/31 01:45:18;;;;;;;57.75;40.88;;;30.30;99.90;;;;;;5071602;28;20125;-63
2022/03/31 01:47:45;;;;;;;65.82;48.33;;;30.40;99.90;;;;;;5070516;28;20024;-63
2022/03/31 01:50:12;;;;;;;59.17;43.33;;;30.50;99.90;;;;;;5072904;28;20024;-66
2022/03/31 01:52:41;;;;;;;71.68;49.38;;;30.60;99.90;;;;;;5072336;28;20494;-63
2022/03/31 01:55:11;;;;;;;57.60;41.08;;;30.70;99.90;;;;;;5072701;28;20106;-66
2022/03/31 01:57:38;;;;;;;57.65;39.92;;;30.70;99.90;;;;;;5075190;28;20524;-62
2022/03/31 02:00:08;;;;;;;63.30;44.08;;;30.70;99.90;;;;;;5076364;28;20032;-64
2022/03/31 02:02:35;;;;;;;56.10;39.55;;;30.70;99.90;;;;;;5076193;28;20035;-61
2022/03/31 02:05:01;;;;;;;54.25;39.33;;;30.80;99.90;;;;;;5076310;28;20037;-62
2022/03/31 02:07:28;;;;;;;50.20;38.13;;;30.80;99.90;;;;;;5076555;28;20063;-63
2022/03/31 02:09:55;;;;;;;58.95;36.83;;;30.80;99.90;;;;;;5076342;28;20028;-63
2022/03/31 02:12:22;;;;;;;40.58;29.13;;;30.90;99.90;;;;;;5076318;28;20039;-63
2022/03/31 02:14:48;;;;;;;45.40;34.53;;;31.00;99.90;;;;;;5076481;28;20071;-62
2022/03/31 02:17:15;;;;;;;50.58;36.28;;;31.10;99.90;;;;;;5076082;28;20024;-62
2022/03/31 02:19:42;;;;;;;48.03;34.08;;;31.10;99.90;;;;;;5076038;28;20024;-62
2022/03/31 02:22:09;;;;;;;44.22;33.38;;;31.00;99.90;;;;;;5074033;28;20058;-62
2022/03/31 02:24:36;;;;;;;48.90;36.47;;;30.90;99.90;;;;;;5076653;28;20083;-64
2022/03/31 02:27:04;;;;;;;61.78;43.97;;;30.80;99.90;;;;;;5076731;28;20020;-63
2022/03/31 02:29:31;;;;;;;103.75;73.45;;;30.80;99.90;;;;;;5077197;28;20056;-63
2022/03/31 02:31:58;;;;;;;74.03;47.45;;;30.90;99.90;;;;;;5076071;28;20413;-61
2022/03/31 02:34:25;;;;;;;105.80;75.10;;;31.00;99.90;;;;;;5075923;28;20029;-62
2022/03/31 02:36:52;;;;;;;80.28;57.15;;;31.00;99.90;;;;;;5076331;28;20031;-61
2022/03/31 02:39:19;;;;;;;82.00;60.40;;;31.00;99.90;;;;;;5076644;28;20026;-62
2022/03/31 02:41:45;;;;;;;61.13;46.85;;;31.00;99.90;;;;;;5074343;28;20509;-62
2022/03/31 02:44:12;;;;;;;68.28;50.47;;;31.00;99.90;;;;;;5074971;28;20044;-61
2022/03/31 02:46:39;;;;;;;56.65;44.47;;;31.00;99.90;;;;;;5075228;28;20544;-63
2022/03/31 02:49:06;;;;;;;67.28;47.33;;;30.90;99.90;;;;;;5075315;28;20479;-62
2022/03/31 02:51:32;;;;;;;61.22;44.83;;;30.90;99.90;;;;;;5074559;28;20032;-62
2022/03/31 02:56:38;;;;;;;67.15;48.38;;;31.00;99.90;;;;;;5073428;28;20090;-63
2022/03/31 02:59:07;;;;;;;82.25;57.53;;;31.10;99.90;;;;;;5072610;28;20356;-63
2022/03/31 03:01:34;;;;;;;76.05;53.22;;;31.20;99.90;;;;;;5075316;28;20496;-63
2022/03/31 03:04:01;;;;;;;95.68;64.75;;;31.20;99.90;;;;;;5074600;28;20052;-63
2022/03/31 03:06:28;;;;;;;62.90;50.42;;;31.20;99.90;;;;;;5075009;28;20028;-62
2022/03/31 03:08:55;;;;;;;69.15;51.83;;;31.20;99.90;;;;;;5075142;28;20028;-63
2022/03/31 03:11:29;;;;;;;91.53;62.40;;;31.30;99.90;;;;;;5075227;28;20035;-63
2022/03/31 03:13:58;;;;;;;89.78;59.95;;;31.20;99.90;;;;;;5074914;28;20032;-62
2022/03/31 03:16:24;;;;;;;96.10;66.68;;;31.10;99.90;;;;;;5075497;28;20036;-63
2022/03/31 03:18:53;;;;;;;91.47;65.15;;;31.00;99.90;;;;;;5075655;28;20087;-62
2022/03/31 03:21:21;;;;;;;88.85;61.45;;;31.00;99.90;;;;;;5075395;28;20044;-62
2022/03/31 03:23:48;;;;;;;94.57;63.40;;;30.90;99.90;;;;;;5075567;28;20028;-62
2022/03/31 03:26:15;;;;;;;85.25;59.75;;;31.00;99.90;;;;;;5075334;28;20055;-62
2022/03/31 03:28:42;;;;;;;84.07;60.17;;;31.00;99.90;;;;;;5074726;28;20098;-63
2022/03/31 03:31:09;;;;;;;105.25;70.18;;;31.00;99.90;;;;;;5070247;28;20435;-62
2022/03/31 03:33:36;;;;;;;84.10;59.17;;;31.00;99.90;;;;;;5074140;28;20082;-62
2022/03/31 03:36:06;;;;;;;80.40;57.20;;;31.00;99.90;;;;;;5071814;28;20062;-61
2022/03/31 03:38:33;;;;;;;96.65;63.00;;;31.00;99.90;;;;;;5068814;28;20486;-61
2022/03/31 03:41:00;;;;;;;82.18;58.30;;;31.00;99.90;;;;;;5072635;28;20054;-62
2022/03/31 03:43:28;;;;;;;124.07;85.75;;;31.10;99.90;;;;;;5070069;28;20033;-62
2022/03/31 03:45:55;;;;;;;83.00;57.50;;;31.10;99.90;;;;;;5072668;28;20048;-62
2022/03/31 03:48:22;;;;;;;83.68;60.95;;;31.10;99.90;;;;;;5073370;28;20482;-62
2022/03/31 03:50:49;;;;;;;79.18;55.95;;;31.10;99.90;;;;;;5074268;28;20057;-63
2022/03/31 03:53:16;;;;;;;71.82;52.75;;;31.10;99.90;;;;;;5074340;28;20032;-62
2022/03/31 03:55:43;;;;;;;81.18;57.58;;;31.00;99.90;;;;;;5073240;28;20020;-61
2022/03/31 03:58:10;;;;;;;112.60;84.68;;;31.10;99.90;;;;;;5081387;28;20392;-61
2022/03/31 04:00:36;;;;;;;94.20;66.15;;;31.10;99.90;;;;;;5073126;28;20025;-62
2022/03/31 04:03:03;;;;;;;82.43;58.35;;;31.10;99.90;;;;;;5075798;28;20548;-61
2022/03/31 04:05:30;;;;;;;94.78;71.78;;;31.10;99.90;;;;;;5075196;28;20031;-63
2022/03/31 04:07:57;;;;;;;228.52;160.23;;;31.10;99.90;;;;;;5074140;28;20021;-62
2022/03/31 04:10:24;;;;;;;63.42;47.88;;;31.20;99.90;;;;;;5071413;28;20041;-62
2022/03/31 04:12:50;;;;;;;89.97;54.42;;;31.20;99.90;;;;;;5073496;28;20098;-62
2022/03/31 04:15:17;;;;;;;86.13;65.53;;;31.30;99.90;;;;;;5071294;28;20031;-62
2022/03/31 04:17:44;;;;;;;99.75;65.25;;;31.50;99.90;;;;;;5073050;28;20056;-63
2022/03/31 04:20:13;;;;;;;160.52;111.60;;;31.60;99.90;;;;;;5071001;28;20029;-62
2022/03/31 04:22:40;;;;;;;50.65;40.95;;;31.70;99.90;;;;;;5072789;28;20028;-62
2022/03/31 04:25:08;;;;;;;97.40;57.83;;;31.70;99.90;;;;;;5073234;28;20348;-62
2022/03/31 04:27:37;;;;;;;249.35;128.65;;;31.70;99.90;;;;;;5071447;28;20382;-63
2022/03/31 04:30:05;;;;;;;49.63;38.53;;;31.70;99.90;;;;;;5073692;28;20560;-62
2022/03/31 04:32:32;;;;;;;125.75;70.50;;;31.80;99.90;;;;;;5071102;28;20028;-62
2022/03/31 04:34:59;;;;;;;138.88;89.32;;;31.90;99.90;;;;;;5073755;28;20056;-62
2022/03/31 04:37:25;;;;;;;145.75;91.82;;;31.90;99.90;;;;;;5071654;28;20032;-63
2022/03/31 04:39:52;;;;;;;55.03;37.60;;;32.00;99.90;;;;;;5073168;28;20056;-63
2022/03/31 04:42:20;;;;;;;47.58;35.30;;;31.90;99.90;;;;;;5070858;28;20032;-62
2022/03/31 04:44:47;;;;;;;54.60;39.17;;;32.00;99.60;;;;;;5073220;28;20414;-62
2022/03/31 04:47:14;;;;;;;63.63;44.58;;;32.00;99.90;;;;;;5070800;28;20040;-62
2022/03/31 04:49:41;;;;;;;52.22;36.63;;;32.10;99.90;;;;;;5070343;28;20028;-63
2022/03/31 04:52:08;;;;;;;45.17;32.75;;;32.00;99.70;;;;;;5070096;28;20117;-63
2022/03/31 04:54:35;;;;;;;40.72;31.80;;;32.10;99.90;;;;;;5068623;28;20033;-63
2022/03/31 04:57:02;;;;;;;61.80;40.95;;;32.20;99.70;;;;;;5072692;28;20025;-63
2022/03/31 04:59:28;;;;;;;43.50;29.48;;;32.20;99.10;;;;;;5072947;28;20032;-63
2022/03/31 05:01:55;;;;;;;43.47;30.38;;;32.20;99.10;;;;;;5072659;28;20028;-63
2022/03/31 05:04:22;;;;;;;40.15;32.20;;;32.20;98.50;;;;;;5072630;28;20025;-63
2022/03/31 05:06:49;;;;;;;42.97;33.25;;;32.10;98.30;;;;;;5072207;28;20024;-64
2022/03/31 05:09:16;;;;;;;42.92;33.13;;;32.10;97.70;;;;;;5071824;28;20082;-62
2022/03/31 05:11:42;;;;;;;69.13;45.35;;;32.10;97.40;;;;;;5071631;28;20107;-64
2022/03/31 05:14:09;;;;;;;50.05;35.80;;;32.10;97.10;;;;;;5072155;28;20104;-64
2022/03/31 05:16:36;;;;;;;66.65;43.33;;;32.00;97.10;;;;;;5069663;28;20016;-64
2022/03/31 05:19:02;;;;;;;57.42;45.28;;;32.00;97.70;;;;;;5072227;28;20029;-63
2022/03/31 05:21:30;;;;;;;58.42;40.67;;;31.90;96.90;;;;;;5072013;28;20032;-64
2022/03/31 05:23:56;;;;;;;57.30;40.28;;;31.60;99.40;;;;;;5072580;28;20036;-64
2022/03/31 05:26:23;;;;;;;56.22;34.78;;;31.20;99.90;;;;;;5072389;28;20092;-63
2022/03/31 05:28:50;;;;;;;69.63;48.03;;;30.90;99.90;;;;;;5073293;28;20366;-66
2022/03/31 05:31:17;;;;;;;46.08;33.00;;;30.70;99.90;;;;;;5073192;28;20024;-62
2022/03/31 05:33:43;;;;;;;337.77;275.67;;;30.70;99.70;;;;;;5076314;28;20044;-63
2022/03/31 05:36:10;;;;;;;77.28;55.38;;;30.70;99.00;;;;;;5076598;28;20025;-64
2022/03/31 05:38:37;;;;;;;99.28;81.53;;;30.60;98.30;;;;;;5076684;28;20074;-62
2022/03/31 05:41:03;;;;;;;72.82;54.80;;;30.60;99.10;;;;;;5075893;28;20027;-62
2022/03/31 05:43:30;;;;;;;44.95;33.38;;;30.60;99.20;;;;;;5076639;28;20032;-63
2022/03/31 05:45:57;;;;;;;48.03;36.08;;;30.70;99.80;;;;;;5076248;28;20115;-62
2022/03/31 05:48:24;;;;;;;53.28;35.85;;;30.70;99.70;;;;;;5072398;28;20036;-62
2022/03/31 05:50:51;;;;;;;77.40;56.97;;;30.60;99.90;;;;;;5074932;28;20105;-62
2022/03/31 05:53:20;;;;;;;90.57;67.07;;;30.70;99.90;;;;;;5076303;28;20024;-60
2022/03/31 05:55:48;;;;;;;124.28;74.07;;;30.80;99.90;;;;;;5075866;28;20028;-61
2022/03/31 05:58:35;;;;;;;81.05;51.00;;;30.80;99.90;;;;;;5075920;28;20025;-61
2022/03/31 06:01:09;;;;;;;51.40;36.58;;;30.90;99.60;;;;;;5076040;28;20074;-61
2022/03/31 06:03:40;;;;;;;60.15;38.75;;;30.90;99.00;;;;;;5076328;28;20108;-62
2022/03/31 06:06:06;;;;;;;53.28;38.60;;;30.90;99.20;;;;;;5076173;28;20479;-61
2022/03/31 06:08:33;;;;;;;54.20;36.08;;;30.90;99.80;;;;;;5076787;28;20039;-62
2022/03/31 06:11:02;;;;;;;63.88;39.83;;;30.90;99.90;;;;;;5073745;28;20165;-62
2022/03/31 06:13:31;;;;;;;69.18;46.47;;;31.00;99.90;;;;;;5076559;28;20032;-62
2022/03/31 06:16:00;;;;;;;154.27;76.95;;;31.00;99.90;;;;;;5074463;28;20024;-61
2022/03/31 06:18:28;;;;;;;90.47;64.57;;;31.00;99.90;;;;;;5076378;28;20033;-62
2022/03/31 06:20:57;;;;;;;105.43;79.45;;;30.70;99.90;;;;;;5060682;28;20035;-62
2022/03/31 06:23:25;;;;;;;84.07;56.38;;;30.50;99.90;;;;;;5056216;28;20029;-62
2022/03/31 06:25:52;;;;;;;95.82;59.53;;;30.50;99.90;;;;;;5062821;28;20031;-62
2022/03/31 06:28:19;;;;;;;54.00;41.45;;;30.40;99.90;;;;;;5076081;28;20062;-64
2022/03/31 06:30:48;;;;;;;60.03;44.40;;;30.50;99.90;;;;;;5076088;28;20036;-62
2022/03/31 06:33:17;;;;;;;84.90;62.58;;;30.50;99.90;;;;;;5075832;28;20032;-62
2022/03/31 06:35:44;;;;;;;100.60;72.80;;;30.40;99.90;;;;;;5075573;28;20480;-63
2022/03/31 06:38:11;;;;;;;73.65;55.70;;;30.30;99.90;;;;;;5074748;28;20463;-65
2022/03/31 06:40:39;;;;;;;57.92;45.65;;;30.30;99.90;;;;;;5074743;28;20319;-61
2022/03/31 06:43:06;;;;;;;67.82;45.60;;;30.30;99.90;;;;;;5074361;28;20039;-63
2022/03/31 06:45:34;;;;;;;68.70;51.53;;;30.30;99.90;;;;;;5075405;28;20044;-63
2022/03/31 06:48:02;;;;;;;78.85;62.90;;;30.30;99.90;;;;;;5075300;28;20035;-65
2022/03/31 06:50:31;;;;;;;65.68;51.70;;;30.30;99.90;;;;;;5075156;28;20036;-63
2022/03/31 06:52:58;;;;;;;67.28;47.72;;;30.30;99.90;;;;;;5075150;28;20056;-63
2022/03/31 06:55:25;;;;;;;69.72;49.05;;;30.30;99.90;;;;;;5075636;28;20028;-63
2022/03/31 06:57:51;;;;;;;81.20;57.42;;;30.20;99.90;;;;;;5075665;28;20037;-63
2022/03/31 07:00:18;;;;;;;93.70;69.30;;;30.10;99.90;;;;;;5075117;28;20027;-63
2022/03/31 07:02:45;;;;;;;48.42;36.95;;;30.10;99.90;;;;;;5075759;28;20020;-64
2022/03/31 07:05:12;;;;;;;49.53;36.72;;;30.00;99.90;;;;;;5075411;28;20149;-63
2022/03/31 07:07:38;;;;;;;45.38;34.42;;;30.00;99.90;;;;;;5075198;28;20020;-64
2022/03/31 07:10:05;;;;;;;17.25;12.68;;;29.90;99.90;;;;;;5074835;28;20021;-63
2022/03/31 07:12:32;;;;;;;29.20;16.73;;;29.50;99.90;;;;;;5074211;28;20407;-63
2022/03/31 07:15:00;;;;;;;21.33;14.65;;;29.20;99.90;;;;;;5074273;28;20059;-63
2022/03/31 07:17:27;;;;;;;20.25;12.85;;;29.00;99.90;;;;;;5075139;28;20017;-63
2022/03/31 07:19:53;;;;;;;14.00;10.35;;;28.90;99.90;;;;;;5082638;28;20458;-66
2022/03/31 07:22:20;;;;;;;52.85;42.63;;;28.80;99.90;;;;;;5093663;28;20076;-63
2022/03/31 07:24:48;;;;;;;20.27;13.70;;;28.70;99.90;;;;;;5061598;28;20028;-63
2022/03/31 07:27:15;;;;;;;31.88;22.52;;;28.70;99.90;;;;;;5074454;28;20024;-65
2022/03/31 07:29:42;;;;;;;27.20;20.15;;;28.80;99.90;;;;;;5070797;28;20028;-62
2022/03/31 07:32:09;;;;;;;32.00;21.35;;;28.80;99.90;;;;;;5074265;28;20055;-63
2022/03/31 07:34:37;;;;;;;26.88;15.43;;;28.80;99.90;;;;;;5074198;28;20025;-63
2022/03/31 07:37:05;;;;;;;37.67;22.05;;;28.50;99.90;;;;;;5074318;28;20474;-63
2022/03/31 07:39:34;;;;;;;103.40;44.92;;;28.30;99.90;;;;;;5092359;28;20032;-64
2022/03/31 07:42:02;;;;;;;77.40;39.80;;;28.10;99.90;;;;;;5076100;28;20021;-62
2022/03/31 07:44:29;;;;;;;89.03;45.42;;;27.80;99.90;;;;;;5074440;28;20086;-64
2022/03/31 07:46:56;;;;;;;40.72;21.63;;;27.60;99.90;;;;;;5073773;28;20483;-62
2022/03/31 07:49:23;;;;;;;59.50;32.63;;;27.50;99.90;;;;;;5074381;28;20043;-64
2022/03/31 07:51:50;;;;;;;77.32;41.53;;;27.40;99.90;;;;;;5074551;28;20033;-62
2022/03/31 07:54:16;;;;;;;137.32;92.80;;;27.30;99.90;;;;;;5073994;28;20082;-63
2022/03/31 07:56:43;;;;;;;171.70;109.65;;;27.20;99.90;;;;;;5073819;28;20097;-63
2022/03/31 07:59:10;;;;;;;281.40;182.77;;;27.10;99.90;;;;;;5071846;28;20025;-63
2022/03/31 08:01:37;;;;;;;267.88;140.50;;;27.20;99.90;;;;;;5071437;28;20070;-63
2022/03/31 08:04:05;;;;;;;393.02;227.50;;;27.20;99.90;;;;;;5069323;28;20604;-62
2022/03/31 08:06:32;;;;;;;326.23;178.18;;;27.20;99.90;;;;;;5073400;28;20043;-63
2022/03/31 08:08:58;;;;;;;259.58;135.68;;;27.40;99.90;;;;;;5073422;28;20386;-63
2022/03/31 08:11:25;;;;;;;200.55;104.47;;;27.30;99.90;;;;;;5073436;28;20037;-63
2022/03/31 08:13:52;;;;;;;172.88;89.47;;;27.20;99.90;;;;;;5073158;28;20036;-63
2022/03/31 08:16:18;;;;;;;220.57;101.93;;;27.10;99.90;;;;;;5074193;28;20139;-64
2022/03/31 08:18:45;;;;;;;219.20;95.78;;;27.10;99.90;;;;;;5072749;28;20419;-64
2022/03/31 08:21:12;;;;;;;129.35;61.58;;;27.20;99.90;;;;;;5073146;28;20028;-66
2022/03/31 08:23:38;;;;;;;51.25;28.65;;;27.30;99.90;;;;;;5073362;28;20035;-64
2022/03/31 08:26:05;;;;;;;207.63;102.80;;;27.30;99.90;;;;;;5073555;28;20066;-63
2022/03/31 08:28:32;;;;;;;68.10;35.05;;;27.40;99.90;;;;;;5074321;28;20070;-64
2022/03/31 08:30:58;;;;;;;44.40;27.27;;;27.50;99.90;;;;;;5073519;28;20387;-62
2022/03/31 08:33:25;;;;;;;45.60;24.27;;;27.50;99.90;;;;;;5068919;28;20036;-64
2022/03/31 08:35:52;;;;;;;36.25;18.50;;;27.40;99.90;;;;;;5074030;28;20033;-63
2022/03/31 08:38:19;;;;;;;21.48;14.88;;;27.30;99.90;;;;;;5073520;28;20074;-62
2022/03/31 08:40:45;;;;;;;28.52;16.42;;;27.10;99.90;;;;;;5072812;28;20035;-65
2022/03/31 08:43:12;;;;;;;19.35;14.68;;;27.00;99.90;;;;;;5073429;28;20043;-63
2022/03/31 08:45:41;;;;;;;33.08;21.58;;;26.90;99.90;;;;;;5072924;28;20056;-62
2022/03/31 08:48:09;;;;;;;22.00;14.63;;;26.70;99.90;;;;;;5073766;28;20058;-65
2022/03/31 08:50:36;;;;;;;28.33;13.98;;;26.50;99.90;;;;;;5073557;28;20025;-62
2022/03/31 08:53:04;;;;;;;22.75;13.23;;;26.40;99.90;;;;;;5073116;28;20031;-62
2022/03/31 08:55:31;;;;;;;19.83;13.23;;;26.50;99.90;;;;;;5072801;28;20018;-62
2022/03/31 08:57:57;;;;;;;18.23;12.32;;;26.40;99.90;;;;;;5073306;28;20028;-64
2022/03/31 09:00:25;;;;;;;22.15;16.35;;;26.50;99.90;;;;;;5073436;28;20025;-62
2022/03/31 09:02:55;;;;;;;26.10;17.02;;;26.50;99.90;;;;;;5072708;28;20032;-62
2022/03/31 09:05:22;;;;;;;20.90;17.27;;;26.50;99.90;;;;;;5073636;28;20032;-62
2022/03/31 09:07:58;;;;;;;20.85;13.75;;;26.60;99.90;;;;;;5071620;28;20056;-62
2022/03/31 09:10:32;;;;;;;21.00;14.77;;;26.60;99.90;;;;;;5072268;28;20463;-62
2022/03/31 09:13:00;;;;;;;18.27;15.00;;;26.50;99.90;;;;;;5073380;28;20115;-64
2022/03/31 09:15:27;;;;;;;24.73;15.32;;;26.50;99.90;;;;;;5082679;28;20083;-61
2022/03/31 09:17:55;;;;;;;21.08;16.10;;;26.60;99.90;;;;;;5094131;28;20048;-60
2022/03/31 09:20:23;;;;;;;25.75;17.67;;;26.70;99.90;;;;;;5078333;28;20052;-61
2022/03/31 09:22:50;;;;;;;40.97;31.23;;;26.80;99.90;;;;;;5074105;28;20021;-62
2022/03/31 09:25:25;;;;;;;43.90;34.45;;;26.80;99.90;;;;;;5072795;28;20032;-62
2022/03/31 09:27:52;;;;;;;56.22;39.22;;;26.80;99.90;;;;;;5072442;28;20141;-62
2022/03/31 09:30:19;;;;;;;43.00;31.20;;;26.80;99.90;;;;;;5083281;28;20489;-62
2022/03/31 09:32:49;;;;;;;29.02;19.17;;;26.90;99.90;;;;;;5086146;28;20035;-64
2022/03/31 09:35:20;;;;;;;38.33;24.10;;;27.00;99.90;;;;;;5072448;28;20024;-63
2022/03/31 09:37:49;;;;;;;46.22;31.63;;;27.00;99.90;;;;;;5069951;28;20036;-62
2022/03/31 09:40:18;;;;;;;50.67;36.67;;;26.90;99.90;;;;;;5072464;28;20031;-62
2022/03/31 09:42:56;;;;;;;57.38;39.88;;;26.90;99.90;;;;;;5073055;28;20020;-62
2022/03/31 09:45:23;;;;;;;32.63;24.23;;;26.90;99.90;;;;;;5075021;28;20051;-65
2022/03/31 09:47:51;;;;;;;45.83;33.97;;;26.90;99.90;;;;;;5081602;28;20208;-62
2022/03/31 09:50:19;;;;;;;50.05;28.77;;;27.00;99.90;;;;;;5073046;28;20048;-62
2022/03/31 09:52:46;;;;;;;32.90;22.08;;;27.10;99.90;;;;;;5072969;28;20060;-63
2022/03/31 09:55:14;;;;;;;34.13;25.73;;;27.10;99.90;;;;;;5065518;28;20025;-63
2022/03/31 09:57:41;;;;;;;39.45;30.83;;;27.10;99.90;;;;;;5072292;28;20047;-62
2022/03/31 10:00:08;;;;;;;89.85;57.10;;;27.10;99.90;;;;;;5072506;28;20025;-62
2022/03/31 10:02:40;;;;;;;57.63;42.47;;;27.30;99.90;;;;;;5072008;28;20097;-64
2022/03/31 10:05:08;;;;;;;49.40;40.17;;;27.20;99.90;;;;;;5072073;28;20020;-66
2022/03/31 10:07:35;;;;;;;52.85;40.92;;;27.30;99.90;;;;;;5072340;28;20486;-64
2022/03/31 10:10:03;;;;;;;54.95;35.58;;;27.20;99.90;;;;;;5072502;28;20032;-64
2022/03/31 10:12:41;;;;;;;40.58;32.50;;;27.20;99.90;;;;;;5063433;28;20285;-62
2022/03/31 10:15:13;;;;;;;42.85;31.65;;;27.30;99.90;;;;;;5062843;28;20025;-63
2022/03/31 10:17:43;;;;;;;46.05;34.85;;;27.20;99.90;;;;;;5072244;28;20463;-64
2022/03/31 10:20:11;;;;;;;48.65;39.38;;;27.10;99.90;;;;;;5074849;28;20031;-66
2022/03/31 10:25:16;;;;;;;60.00;48.28;;;27.10;99.90;;;;;;5075266;28;20108;-64
2022/03/31 10:27:50;;;;;;;65.72;50.83;;;27.20;99.90;;;;;;5076012;28;20039;-67
2022/03/31 10:30:26;;;;;;;59.67;49.42;;;27.20;99.90;;;;;;5076002;28;20013;-64
2022/03/31 10:33:05;;;;;;;54.53;44.88;;;27.20;99.90;;;;;;5075871;28;20107;-64
2022/03/31 10:35:35;;;;;;;55.03;45.13;;;27.20;99.90;;;;;;5075092;28;20368;-65
2022/03/31 10:38:15;;;;;;;51.08;40.55;;;27.20;99.90;;;;;;5065549;28;20035;-64
2022/03/31 10:40:45;;;;;;;43.85;37.67;;;27.10;99.90;;;;;;5075815;28;20386;-63
2022/03/31 10:43:24;;;;;;;40.17;32.95;;;27.00;99.90;;;;;;5075944;28;20032;-67
2022/03/31 10:45:54;;;;;;;43.67;34.13;;;27.00;99.90;;;;;;5073373;28;20457;-65
2022/03/31 10:48:24;;;;;;;74.10;58.15;;;27.00;99.90;;;;;;5075103;28;20521;-65
2022/03/31 10:51:11;;;;;;;33.40;29.65;;;27.00;99.90;;;;;;5075481;28;20033;-65
2022/03/31 10:53:40;;;;;;;27.27;21.73;;;27.00;99.90;;;;;;5061517;28;20032;-65
2022/03/31 10:56:14;;;;;;;33.63;25.52;;;26.90;99.90;;;;;;5075668;28;20404;-65
2022/03/31 10:58:41;;;;;;;34.38;26.20;;;26.90;99.90;;;;;;5075659;28;20047;-64
2022/03/31 11:01:11;;;;;;;31.15;22.55;;;26.90;99.90;;;;;;5075367;28;20021;-65
2022/03/31 11:03:37;;;;;;;33.58;25.90;;;27.00;99.90;;;;;;5075769;28;20071;-65
2022/03/31 11:06:08;;;;;;;55.92;40.45;;;26.90;99.90;;;;;;5075247;28;20028;-66
2022/03/31 11:08:49;;;;;;;37.50;22.88;;;27.00;99.90;;;;;;5076109;28;20115;-64
2022/03/31 11:11:24;;;;;;;23.60;17.88;;;27.00;99.90;;;;;;5075518;28;20110;-64
2022/03/31 11:13:52;;;;;;;24.75;16.00;;;27.00;99.90;;;;;;5093819;28;20024;-66
2022/03/31 11:16:19;;;;;;;20.98;15.43;;;27.00;99.90;;;;;;5095743;28;20030;-68
2022/03/31 11:18:55;;;;;;;17.85;15.98;;;26.90;99.90;;;;;;5095667;28;20024;-66
2022/03/31 11:21:24;;;;;;;23.85;15.68;;;26.90;99.90;;;;;;5095843;28;20099;-66
2022/03/31 11:23:53;;;;;;;21.17;17.38;;;26.90;99.90;;;;;;5095520;28;20051;-67
2022/03/31 11:26:26;;;;;;;95.30;65.45;;;26.90;99.90;;;;;;5074839;28;20111;-66
2022/03/31 11:28:54;;;;;;;58.70;42.08;;;26.90;99.90;;;;;;5073087;28;20062;-65
2022/03/31 11:31:23;;;;;;;86.95;71.32;;;26.90;99.90;;;;;;5073349;28;20111;-66
2022/03/31 11:33:50;;;;;;;130.38;91.97;;;26.90;99.90;;;;;;5073794;28;20074;-64
2022/03/31 11:36:21;;;;;;;65.68;44.00;;;26.90;99.90;;;;;;5073381;28;20029;-67
2022/03/31 11:38:59;;;;;;;25.63;19.65;;;27.00;99.90;;;;;;5073044;28;20414;-69
2022/03/31 11:41:37;;;;;;;27.85;18.33;;;26.90;99.90;;;;;;5073610;28;20107;-67
2022/03/31 11:44:07;;;;;;;24.83;17.60;;;26.90;99.90;;;;;;5072739;28;20052;-66
2022/03/31 11:46:48;;;;;;;22.20;16.92;;;26.90;99.90;;;;;;5074213;28;20029;-67
2022/03/31 11:49:17;;;;;;;20.80;16.25;;;26.80;99.90;;;;;;5071481;28;20024;-67
2022/03/31 11:51:52;;;;;;;26.65;19.05;;;26.80;99.90;;;;;;5073566;28;20458;-67
2022/03/31 11:54:20;;;;;;;31.75;19.92;;;26.80;99.90;;;;;;5073448;28;20060;-66
2022/03/31 11:56:47;;;;;;;25.30;18.25;;;26.90;99.90;;;;;;5073868;28;20017;-67
2022/03/31 11:59:14;;;;;;;35.97;24.38;;;26.80;99.90;;;;;;5073627;28;20074;-66
2022/03/31 12:01:43;;;;;;;35.42;26.25;;;26.80;99.90;;;;;;5073320;28;20020;-67
2022/03/31 12:04:22;;;;;;;29.75;22.17;;;26.80;99.90;;;;;;5072801;28;20036;-67
2022/03/31 12:06:51;;;;;;;32.78;20.92;;;26.90;99.90;;;;;;5073353;28;20025;-67
2022/03/31 12:09:18;;;;;;;29.58;20.92;;;26.80;99.90;;;;;;5072745;28;20495;-67
2022/03/31 12:11:48;;;;;;;30.67;21.85;;;26.70;99.90;;;;;;5073237;28;20032;-65
2022/03/31 12:14:15;;;;;;;31.25;23.10;;;26.80;99.90;;;;;;5070922;28;20027;-65
2022/03/31 12:16:49;;;;;;;30.92;22.67;;;26.80;99.90;;;;;;5072860;28;20029;-66
2022/03/31 12:19:17;;;;;;;34.72;23.65;;;26.80;99.90;;;;;;5070841;28;20459;-66
2022/03/31 12:21:51;;;;;;;39.92;26.30;;;26.80;99.90;;;;;;5073580;28;20032;-65
2022/03/31 12:24:18;;;;;;;48.03;30.88;;;26.80;99.90;;;;;;5070893;28;20102;-66
2022/03/31 12:27:00;;;;;;;53.45;34.08;;;26.80;99.90;;;;;;5073013;28;20074;-65
2022/03/31 12:29:28;;;;;;;;;;;26.70;99.90;;;;;;5073310;28;20082;-66
2022/03/31 12:32:06;;;;;;;49.10;40.05;;;26.70;99.90;;;;;;5073227;28;19912;-66
2022/03/31 12:34:35;;;;;;;49.65;38.75;;;26.80;99.90;;;;;;5073161;28;20115;-65
2022/03/31 12:37:02;;;;;;;50.42;41.42;;;26.80;99.90;;;;;;5073572;28;20024;-65
2022/03/31 12:39:29;;;;;;;50.45;40.20;;;26.70;99.90;;;;;;5073764;28;20387;-66